Terminal Aerodrome Forecast
Issued by NWS

Home | Current Version | Previous Version | Text Only | Print | Product List | Glossary On
Versions: 1 2 3 4 5 6 7 8 9 10 11 12
000
FTUS44 KLIX 301134
TAFHDC
TAF
KHDC 301134Z 3012/3112 00000KT P6SM SKC
     FM301400 27004KT P6SM FEW025 SCT250
     FM301800 28004KT P6SM VCTS SCT035CB BKN150
     FM302300 19005KT P6SM FEW040 BKN200=

USA.gov is the U.S. government's official web portal to all federal, state and local government web resources and services.